sensor_id;sensor_type;location;lat;lon;timestamp;temperature;humidity
23499;DHT22;11926;48.120;11.562;2023-06-10T00:00:11;18.20;79.50
23499;DHT22;11926;48.120;11.562;2023-06-10T00:03:01;18.20;80.00
23499;DHT22;11926;48.120;11.562;2023-06-10T00:05:49;18.10;79.50
23499;DHT22;11926;48.120;11.562;2023-06-10T00:08:36;18.10;79.50
23499;DHT22;11926;48.120;11.562;2023-06-10T00:11:24;18.00;79.40
23499;DHT22;11926;48.120;11.562;2023-06-10T00:14:12;18.00;79.40
23499;DHT22;11926;48.120;11.562;2023-06-10T00:16:59;18.00;80.00
23499;DHT22;11926;48.120;11.562;2023-06-10T00:19:49;18.00;79.90
23499;DHT22;11926;48.120;11.562;2023-06-10T00:22:36;17.90;80.30
23499;DHT22;11926;48.120;11.562;2023-06-10T00:25:23;17.90;79.90
23499;DHT22;11926;48.120;11.562;2023-06-10T00:28:12;17.80;80.10
23499;DHT22;11926;48.120;11.562;2023-06-10T00:31:00;17.80;80.10
23499;DHT22;11926;48.120;11.562;2023-06-10T00:33:47;17.80;80.20
23499;DHT22;11926;48.120;11.562;2023-06-10T00:36:34;17.80;80.20
23499;DHT22;11926;48.120;11.562;2023-06-10T00:39:22;17.70;80.30
23499;DHT22;11926;48.120;11.562;2023-06-10T00:42:09;17.70;80.60
23499;DHT22;11926;48.120;11.562;2023-06-10T00:44:58;17.60;80.50
23499;DHT22;11926;48.120;11.562;2023-06-10T00:47:45;17.60;80.80
23499;DHT22;11926;48.120;11.562;2023-06-10T00:50:32;17.60;80.90
23499;DHT22;11926;48.120;11.562;2023-06-10T00:53:21;17.50;81.00
23499;DHT22;11926;48.120;11.562;2023-06-10T00:56:09;17.50;81.30
23499;DHT22;11926;48.120;11.562;2023-06-10T00:58:57;17.40;81.30
23499;DHT22;11926;48.120;11.562;2023-06-10T01:01:46;17.40;81.50
23499;DHT22;11926;48.120;11.562;2023-06-10T01:04:34;17.40;81.80
23499;DHT22;11926;48.120;11.562;2023-06-10T01:07:28;17.30;81.70
23499;DHT22;11926;48.120;11.562;2023-06-10T01:10:24;17.30;82.20
23499;DHT22;11926;48.120;11.562;2023-06-10T01:13:14;17.30;82.80
23499;DHT22;11926;48.120;11.562;2023-06-10T01:16:03;17.20;82.80
23499;DHT22;11926;48.120;11.562;2023-06-10T01:18:52;17.20;83.20
23499;DHT22;11926;48.120;11.562;2023-06-10T01:21:42;17.10;83.20
23499;DHT22;11926;48.120;11.562;2023-06-10T01:24:36;17.10;83.50
23499;DHT22;11926;48.120;11.562;2023-06-10T01:27:30;17.10;83.60
23499;DHT22;11926;48.120;11.562;2023-06-10T01:30:23;17.00;83.70
23499;DHT22;11926;48.120;11.562;2023-06-10T01:33:19;17.00;84.30
23499;DHT22;11926;48.120;11.562;2023-06-10T01:36:09;17.00;84.40
23499;DHT22;11926;48.120;11.562;2023-06-10T01:39:00;16.90;84.70
23499;DHT22;11926;48.120;11.562;2023-06-10T01:41:48;16.90;85.40
23499;DHT22;11926;48.120;11.562;2023-06-10T01:44:36;16.90;85.40
23499;DHT22;11926;48.120;11.562;2023-06-10T01:47:26;16.80;85.40
23499;DHT22;11926;48.120;11.562;2023-06-10T01:50:14;16.80;85.80
23499;DHT22;11926;48.120;11.562;2023-06-10T01:53:01;16.80;85.80
23499;DHT22;11926;48.120;11.562;2023-06-10T01:55:50;16.70;85.90
23499;DHT22;11926;48.120;11.562;2023-06-10T01:58:37;16.70;86.30
23499;DHT22;11926;48.120;11.562;2023-06-10T02:01:24;16.70;86.30
23499;DHT22;11926;48.120;11.562;2023-06-10T02:04:11;16.70;86.60
23499;DHT22;11926;48.120;11.562;2023-06-10T02:06:58;16.60;86.90
23499;DHT22;11926;48.120;11.562;2023-06-10T02:09:49;16.60;87.40
23499;DHT22;11926;48.120;11.562;2023-06-10T02:12:38;16.60;87.50
23499;DHT22;11926;48.120;11.562;2023-06-10T02:15:25;16.60;87.50
23499;DHT22;11926;48.120;11.562;2023-06-10T02:18:12;16.50;88.00
23499;DHT22;11926;48.120;11.562;2023-06-10T02:21:00;16.50;88.30
23499;DHT22;11926;48.120;11.562;2023-06-10T02:23:46;16.50;88.40
23499;DHT22;11926;48.120;11.562;2023-06-10T02:26:34;16.50;88.90
23499;DHT22;11926;48.120;11.562;2023-06-10T02:29:22;16.50;90.00
23499;DHT22;11926;48.120;11.562;2023-06-10T02:32:10;16.40;89.40
23499;DHT22;11926;48.120;11.562;2023-06-10T02:35:00;16.40;89.60
23499;DHT22;11926;48.120;11.562;2023-06-10T02:37:48;16.30;90.00
23499;DHT22;11926;48.120;11.562;2023-06-10T02:40:37;16.30;90.00
23499;DHT22;11926;48.120;11.562;2023-06-10T02:43:24;16.30;90.10
23499;DHT22;11926;48.120;11.562;2023-06-10T02:46:14;16.30;90.20
23499;DHT22;11926;48.120;11.562;2023-06-10T02:49:02;16.20;90.30
23499;DHT22;11926;48.120;11.562;2023-06-10T02:51:50;16.20;90.50
23499;DHT22;11926;48.120;11.562;2023-06-10T02:54:40;16.10;90.50
23499;DHT22;11926;48.120;11.562;2023-06-10T02:57:28;16.10;90.60
23499;DHT22;11926;48.120;11.562;2023-06-10T03:00:16;16.00;90.60
23499;DHT22;11926;48.120;11.562;2023-06-10T03:03:08;16.00;90.80
23499;DHT22;11926;48.120;11.562;2023-06-10T03:06:05;15.90;90.80
23499;DHT22;11926;48.120;11.562;2023-06-10T03:08:53;15.90;90.90
23499;DHT22;11926;48.120;11.562;2023-06-10T03:11:40;15.80;91.00
23499;DHT22;11926;48.120;11.562;2023-06-10T03:14:28;15.80;91.00
23499;DHT22;11926;48.120;11.562;2023-06-10T03:17:15;15.80;91.10
23499;DHT22;11926;48.120;11.562;2023-06-10T03:20:06;15.70;91.10
23499;DHT22;11926;48.120;11.562;2023-06-10T03:22:58;15.70;91.30
23499;DHT22;11926;48.120;11.562;2023-06-10T03:25:46;15.70;91.30
23499;DHT22;11926;48.120;11.562;2023-06-10T03:28:36;15.70;91.40
23499;DHT22;11926;48.120;11.562;2023-06-10T03:31:23;15.60;91.40
23499;DHT22;11926;48.120;11.562;2023-06-10T03:34:13;15.60;91.60
23499;DHT22;11926;48.120;11.562;2023-06-10T03:37:01;15.60;91.70
23499;DHT22;11926;48.120;11.562;2023-06-10T03:39:49;15.60;91.80
23499;DHT22;11926;48.120;11.562;2023-06-10T03:42:37;15.60;92.00
23499;DHT22;11926;48.120;11.562;2023-06-10T03:45:24;15.60;92.10
23499;DHT22;11926;48.120;11.562;2023-06-10T03:48:15;15.60;92.30
23499;DHT22;11926;48.120;11.562;2023-06-10T03:51:06;15.70;92.40
23499;DHT22;11926;48.120;11.562;2023-06-10T03:53:55;15.70;92.40
23499;DHT22;11926;48.120;11.562;2023-06-10T03:59:30;15.70;92.20
23499;DHT22;11926;48.120;11.562;2023-06-10T04:02:17;15.80;92.70
23499;DHT22;11926;48.120;11.562;2023-06-10T04:05:04;15.80;92.70
23499;DHT22;11926;48.120;11.562;2023-06-10T04:07:52;15.90;92.80
23499;DHT22;11926;48.120;11.562;2023-06-10T04:10:41;15.90;92.80
23499;DHT22;11926;48.120;11.562;2023-06-10T04:13:27;15.90;92.90
23499;DHT22;11926;48.120;11.562;2023-06-10T04:16:17;15.90;92.90
23499;DHT22;11926;48.120;11.562;2023-06-10T04:19:06;16.00;92.90
23499;DHT22;11926;48.120;11.562;2023-06-10T04:21:53;16.00;92.90
23499;DHT22;11926;48.120;11.562;2023-06-10T04:24:40;16.10;92.90
23499;DHT22;11926;48.120;11.562;2023-06-10T04:27:30;16.10;93.00
23499;DHT22;11926;48.120;11.562;2023-06-10T04:30:18;16.20;93.00
23499;DHT22;11926;48.120;11.562;2023-06-10T04:33:07;16.20;92.90
23499;DHT22;11926;48.120;11.562;2023-06-10T04:35:57;16.30;92.80
23499;DHT22;11926;48.120;11.562;2023-06-10T04:38:48;16.30;92.80
23499;DHT22;11926;48.120;11.562;2023-06-10T04:41:34;16.40;92.80
23499;DHT22;11926;48.120;11.562;2023-06-10T04:44:23;16.50;92.80
23499;DHT22;11926;48.120;11.562;2023-06-10T04:47:11;16.60;92.90
23499;DHT22;11926;48.120;11.562;2023-06-10T04:49:58;16.60;92.80
23499;DHT22;11926;48.120;11.562;2023-06-10T04:52:47;16.70;92.70
23499;DHT22;11926;48.120;11.562;2023-06-10T04:55:34;16.80;92.50
23499;DHT22;11926;48.120;11.562;2023-06-10T04:58:22;16.90;92.40
23499;DHT22;11926;48.120;11.562;2023-06-10T05:01:10;17.00;92.50
23499;DHT22;11926;48.120;11.562;2023-06-10T05:03:57;17.10;92.30
23499;DHT22;11926;48.120;11.562;2023-06-10T05:06:45;17.20;92.10
23499;DHT22;11926;48.120;11.562;2023-06-10T05:09:31;17.40;91.90
23499;DHT22;11926;48.120;11.562;2023-06-10T05:12:18;17.40;91.70
23499;DHT22;11926;48.120;11.562;2023-06-10T05:15:07;17.60;91.70
23499;DHT22;11926;48.120;11.562;2023-06-10T05:17:57;17.70;91.60
23499;DHT22;11926;48.120;11.562;2023-06-10T05:20:44;17.80;91.20
23499;DHT22;11926;48.120;11.562;2023-06-10T05:23:32;17.90;91.00
23499;DHT22;11926;48.120;11.562;2023-06-10T05:26:20;18.00;91.00
23499;DHT22;11926;48.120;11.562;2023-06-10T05:29:07;18.20;90.80
23499;DHT22;11926;48.120;11.562;2023-06-10T05:31:55;18.30;90.50
23499;DHT22;11926;48.120;11.562;2023-06-10T05:34:44;18.40;90.30
23499;DHT22;11926;48.120;11.562;2023-06-10T05:37:33;18.50;90.10
23499;DHT22;11926;48.120;11.562;2023-06-10T05:40:22;18.60;90.00
23499;DHT22;11926;48.120;11.562;2023-06-10T05:43:10;18.70;89.60
23499;DHT22;11926;48.120;11.562;2023-06-10T05:45:56;18.90;89.30
23499;DHT22;11926;48.120;11.562;2023-06-10T05:48:44;19.00;89.30
23499;DHT22;11926;48.120;11.562;2023-06-10T05:51:32;19.20;88.50
23499;DHT22;11926;48.120;11.562;2023-06-10T05:54:19;19.30;87.80
23499;DHT22;11926;48.120;11.562;2023-06-10T05:57:06;19.40;87.60
23499;DHT22;11926;48.120;11.562;2023-06-10T05:59:53;19.50;87.40
23499;DHT22;11926;48.120;11.562;2023-06-10T06:02:40;19.70;86.70
23499;DHT22;11926;48.120;11.562;2023-06-10T06:05:27;19.80;86.00
23499;DHT22;11926;48.120;11.562;2023-06-10T06:08:22;19.90;85.40
23499;DHT22;11926;48.120;11.562;2023-06-10T06:11:09;20.00;85.20
23499;DHT22;11926;48.120;11.562;2023-06-10T06:13:56;20.10;84.90
23499;DHT22;11926;48.120;11.562;2023-06-10T06:16:43;20.30;84.40
23499;DHT22;11926;48.120;11.562;2023-06-10T06:19:30;20.40;83.80
23499;DHT22;11926;48.120;11.562;2023-06-10T06:22:17;20.40;83.10
23499;DHT22;11926;48.120;11.562;2023-06-10T06:25:09;20.50;82.70
23499;DHT22;11926;48.120;11.562;2023-06-10T06:27:57;20.60;82.10
23499;DHT22;11926;48.120;11.562;2023-06-10T06:30:44;20.70;81.80
23499;DHT22;11926;48.120;11.562;2023-06-10T06:33:31;20.90;81.90
23499;DHT22;11926;48.120;11.562;2023-06-10T06:36:19;21.10;80.80
23499;DHT22;11926;48.120;11.562;2023-06-10T06:39:06;21.30;79.90
23499;DHT22;11926;48.120;11.562;2023-06-10T06:41:55;21.40;79.40
23499;DHT22;11926;48.120;11.562;2023-06-10T06:45:00;21.60;79.30
23499;DHT22;11926;48.120;11.562;2023-06-10T06:47:48;21.60;78.90
23499;DHT22;11926;48.120;11.562;2023-06-10T06:50:35;21.60;77.90
23499;DHT22;11926;48.120;11.562;2023-06-10T06:53:22;21.60;77.70
23499;DHT22;11926;48.120;11.562;2023-06-10T06:56:10;21.60;78.40
23499;DHT22;11926;48.120;11.562;2023-06-10T06:58:58;21.80;78.10
23499;DHT22;11926;48.120;11.562;2023-06-10T07:01:46;22.10;76.70
23499;DHT22;11926;48.120;11.562;2023-06-10T07:04:34;22.30;76.10
23499;DHT22;11926;48.120;11.562;2023-06-10T07:07:20;22.70;74.40
23499;DHT22;11926;48.120;11.562;2023-06-10T07:10:11;23.20;73.00
23499;DHT22;11926;48.120;11.562;2023-06-10T07:12:58;23.90;71.20
23499;DHT22;11926;48.120;11.562;2023-06-10T07:15:47;24.60;68.70
23499;DHT22;11926;48.120;11.562;2023-06-10T07:18:34;25.30;65.20
23499;DHT22;11926;48.120;11.562;2023-06-10T07:21:21;25.80;64.10
23499;DHT22;11926;48.120;11.562;2023-06-10T07:24:09;26.70;62.40
23499;DHT22;11926;48.120;11.562;2023-06-10T07:26:56;28.10;58.30
23499;DHT22;11926;48.120;11.562;2023-06-10T07:29:43;29.30;56.40
23499;DHT22;11926;48.120;11.562;2023-06-10T07:32:32;30.70;53.30
23499;DHT22;11926;48.120;11.562;2023-06-10T07:35:19;32.00;50.00
23499;DHT22;11926;48.120;11.562;2023-06-10T07:38:06;32.80;48.00
23499;DHT22;11926;48.120;11.562;2023-06-10T07:40:53;32.80;46.30
23499;DHT22;11926;48.120;11.562;2023-06-10T07:43:40;32.30;46.20
23499;DHT22;11926;48.120;11.562;2023-06-10T07:46:27;31.10;46.90
23499;DHT22;11926;48.120;11.562;2023-06-10T07:49:15;30.30;48.90
23499;DHT22;11926;48.120;11.562;2023-06-10T07:52:02;30.80;49.70
23499;DHT22;11926;48.120;11.562;2023-06-10T07:54:49;32.00;47.00
23499;DHT22;11926;48.120;11.562;2023-06-10T07:57:37;32.50;45.30
23499;DHT22;11926;48.120;11.562;2023-06-10T08:00:24;32.80;45.10
23499;DHT22;11926;48.120;11.562;2023-06-10T08:03:11;33.80;43.30
23499;DHT22;11926;48.120;11.562;2023-06-10T08:06:00;35.10;41.50
23499;DHT22;11926;48.120;11.562;2023-06-10T08:08:48;36.00;39.00
23499;DHT22;11926;48.120;11.562;2023-06-10T08:11:35;36.70;38.40
23499;DHT22;11926;48.120;11.562;2023-06-10T08:14:21;37.40;36.60
23499;DHT22;11926;48.120;11.562;2023-06-10T08:17:10;37.70;36.80
23499;DHT22;11926;48.120;11.562;2023-06-10T08:19:57;38.20;35.70
23499;DHT22;11926;48.120;11.562;2023-06-10T08:22:49;38.50;34.20
23499;DHT22;11926;48.120;11.562;2023-06-10T08:25:36;38.40;33.90
23499;DHT22;11926;48.120;11.562;2023-06-10T08:28:23;38.30;33.70
23499;DHT22;11926;48.120;11.562;2023-06-10T08:31:10;38.10;33.90
23499;DHT22;11926;48.120;11.562;2023-06-10T08:33:57;38.00;33.70
23499;DHT22;11926;48.120;11.562;2023-06-10T08:36:44;38.10;34.00
23499;DHT22;11926;48.120;11.562;2023-06-10T08:39:32;38.20;33.80
23499;DHT22;11926;48.120;11.562;2023-06-10T08:42:24;38.10;33.80
23499;DHT22;11926;48.120;11.562;2023-06-10T08:45:15;38.30;35.20
23499;DHT22;11926;48.120;11.562;2023-06-10T08:48:04;38.90;33.30
23499;DHT22;11926;48.120;11.562;2023-06-10T08:50:57;38.20;33.40
23499;DHT22;11926;48.120;11.562;2023-06-10T08:53:50;37.30;34.50
23499;DHT22;11926;48.120;11.562;2023-06-10T08:56:41;35.60;36.90
23499;DHT22;11926;48.120;11.562;2023-06-10T08:59:29;34.90;38.40
23499;DHT22;11926;48.120;11.562;2023-06-10T09:02:17;35.30;38.80
23499;DHT22;11926;48.120;11.562;2023-06-10T09:05:07;35.20;38.20
23499;DHT22;11926;48.120;11.562;2023-06-10T09:07:56;33.70;40.20
23499;DHT22;11926;48.120;11.562;2023-06-10T09:10:44;32.20;42.40
23499;DHT22;11926;48.120;11.562;2023-06-10T09:13:33;30.90;44.40
23499;DHT22;11926;48.120;11.562;2023-06-10T09:16:20;31.40;45.50
23499;DHT22;11926;48.120;11.562;2023-06-10T09:19:07;33.00;42.90
23499;DHT22;11926;48.120;11.562;2023-06-10T09:21:56;34.40;41.00
23499;DHT22;11926;48.120;11.562;2023-06-10T09:24:43;36.00;39.40
23499;DHT22;11926;48.120;11.562;2023-06-10T09:27:30;37.10;36.60
23499;DHT22;11926;48.120;11.562;2023-06-10T09:30:29;36.30;35.60
23499;DHT22;11926;48.120;11.562;2023-06-10T09:33:16;34.30;39.00
23499;DHT22;11926;48.120;11.562;2023-06-10T09:36:03;33.90;40.10
23499;DHT22;11926;48.120;11.562;2023-06-10T09:38:50;34.40;39.90
23499;DHT22;11926;48.120;11.562;2023-06-10T09:41:40;34.90;38.70
23499;DHT22;11926;48.120;11.562;2023-06-10T09:44:27;35.00;38.80
23499;DHT22;11926;48.120;11.562;2023-06-10T09:47:22;35.40;37.60
23499;DHT22;11926;48.120;11.562;2023-06-10T09:50:10;34.80;38.30
23499;DHT22;11926;48.120;11.562;2023-06-10T09:52:58;33.90;38.50
23499;DHT22;11926;48.120;11.562;2023-06-10T09:55:48;32.90;40.60
23499;DHT22;11926;48.120;11.562;2023-06-10T09:58:36;31.80;42.30
23499;DHT22;11926;48.120;11.562;2023-06-10T10:01:23;30.90;44.60
23499;DHT22;11926;48.120;11.562;2023-06-10T10:04:12;30.50;45.20
23499;DHT22;11926;48.120;11.562;2023-06-10T10:06:59;30.20;47.00
23499;DHT22;11926;48.120;11.562;2023-06-10T10:09:46;29.80;46.20
23499;DHT22;11926;48.120;11.562;2023-06-10T10:12:33;29.40;47.30
23499;DHT22;11926;48.120;11.562;2023-06-10T10:15:21;29.00;47.20
23499;DHT22;11926;48.120;11.562;2023-06-10T10:18:14;28.60;49.10
23499;DHT22;11926;48.120;11.562;2023-06-10T10:21:09;28.30;48.50
23499;DHT22;11926;48.120;11.562;2023-06-10T10:24:01;27.80;49.10
23499;DHT22;11926;48.120;11.562;2023-06-10T10:26:50;27.60;50.10
23499;DHT22;11926;48.120;11.562;2023-06-10T10:29:39;27.50;49.90
23499;DHT22;11926;48.120;11.562;2023-06-10T10:32:32;27.40;49.80
23499;DHT22;11926;48.120;11.562;2023-06-10T10:35:22;27.30;50.90
23499;DHT22;11926;48.120;11.562;2023-06-10T10:38:11;27.20;49.90
23499;DHT22;11926;48.120;11.562;2023-06-10T10:40:58;27.20;50.40
23499;DHT22;11926;48.120;11.562;2023-06-10T10:43:47;27.30;51.20
23499;DHT22;11926;48.120;11.562;2023-06-10T10:46:43;27.30;50.60
23499;DHT22;11926;48.120;11.562;2023-06-10T10:49:31;27.40;51.00
23499;DHT22;11926;48.120;11.562;2023-06-10T10:52:18;27.20;50.60
23499;DHT22;11926;48.120;11.562;2023-06-10T10:55:12;27.00;50.80
23499;DHT22;11926;48.120;11.562;2023-06-10T10:58:03;26.80;50.90
23499;DHT22;11926;48.120;11.562;2023-06-10T11:00:51;26.70;51.90
23499;DHT22;11926;48.120;11.562;2023-06-10T11:03:43;26.70;52.60
23499;DHT22;11926;48.120;11.562;2023-06-10T11:06:33;27.10;54.20
23499;DHT22;11926;48.120;11.562;2023-06-10T11:09:28;27.50;52.50
23499;DHT22;11926;48.120;11.562;2023-06-10T11:12:22;27.70;51.40
23499;DHT22;11926;48.120;11.562;2023-06-10T11:15:09;27.60;51.70
23499;DHT22;11926;48.120;11.562;2023-06-10T11:18:12;27.70;51.50
23499;DHT22;11926;48.120;11.562;2023-06-10T11:23:47;27.60;50.80
23499;DHT22;11926;48.120;11.562;2023-06-10T11:26:44;27.50;49.90
23499;DHT22;11926;48.120;11.562;2023-06-10T11:29:32;27.60;50.60
23499;DHT22;11926;48.120;11.562;2023-06-10T11:32:21;27.70;49.70
23499;DHT22;11926;48.120;11.562;2023-06-10T11:35:08;27.80;49.80
23499;DHT22;11926;48.120;11.562;2023-06-10T11:37:55;27.90;49.10
23499;DHT22;11926;48.120;11.562;2023-06-10T11:40:48;27.80;49.00
23499;DHT22;11926;48.120;11.562;2023-06-10T11:43:35;27.70;48.20
23499;DHT22;11926;48.120;11.562;2023-06-10T11:46:24;27.80;50.20
23499;DHT22;11926;48.120;11.562;2023-06-10T11:49:14;28.00;50.10
23499;DHT22;11926;48.120;11.562;2023-06-10T11:52:04;28.00;49.00
23499;DHT22;11926;48.120;11.562;2023-06-10T11:54:53;27.90;49.00
23499;DHT22;11926;48.120;11.562;2023-06-10T11:57:41;27.70;49.00
23499;DHT22;11926;48.120;11.562;2023-06-10T12:00:28;27.40;49.00
23499;DHT22;11926;48.120;11.562;2023-06-10T12:03:17;27.00;50.70
23499;DHT22;11926;48.120;11.562;2023-06-10T12:06:05;27.00;51.90
23499;DHT22;11926;48.120;11.562;2023-06-10T12:08:54;27.10;50.80
23499;DHT22;11926;48.120;11.562;2023-06-10T12:12:00;27.30;50.20
23499;DHT22;11926;48.120;11.562;2023-06-10T12:14:53;27.60;51.30
23499;DHT22;11926;48.120;11.562;2023-06-10T12:17:43;27.90;49.60
23499;DHT22;11926;48.120;11.562;2023-06-10T12:20:32;28.00;48.40
23499;DHT22;11926;48.120;11.562;2023-06-10T12:23:20;27.90;48.20
23499;DHT22;11926;48.120;11.562;2023-06-10T12:26:07;27.60;48.90
23499;DHT22;11926;48.120;11.562;2023-06-10T12:28:54;27.60;50.60
23499;DHT22;11926;48.120;11.562;2023-06-10T12:31:57;27.80;49.70
23499;DHT22;11926;48.120;11.562;2023-06-10T12:34:45;27.90;49.20
23499;DHT22;11926;48.120;11.562;2023-06-10T12:37:34;27.70;47.50
23499;DHT22;11926;48.120;11.562;2023-06-10T12:40:28;27.70;48.60
23499;DHT22;11926;48.120;11.562;2023-06-10T12:43:19;27.80;48.60
23499;DHT22;11926;48.120;11.562;2023-06-10T12:46:09;27.90;48.20
23499;DHT22;11926;48.120;11.562;2023-06-10T12:48:58;28.10;47.90
23499;DHT22;11926;48.120;11.562;2023-06-10T12:51:45;28.20;47.60
23499;DHT22;11926;48.120;11.562;2023-06-10T12:54:34;28.50;48.10
23499;DHT22;11926;48.120;11.562;2023-06-10T12:57:21;28.80;46.10
23499;DHT22;11926;48.120;11.562;2023-06-10T13:00:26;29.00;46.80
23499;DHT22;11926;48.120;11.562;2023-06-10T13:03:15;29.00;45.20
23499;DHT22;11926;48.120;11.562;2023-06-10T13:06:02;28.80;44.50
23499;DHT22;11926;48.120;11.562;2023-06-10T13:08:51;28.70;45.70
23499;DHT22;11926;48.120;11.562;2023-06-10T13:11:40;28.70;46.30
23499;DHT22;11926;48.120;11.562;2023-06-10T13:14:28;28.90;47.50
23499;DHT22;11926;48.120;11.562;2023-06-10T13:17:15;28.80;48.50
23499;DHT22;11926;48.120;11.562;2023-06-10T13:20:03;28.50;49.80
23499;DHT22;11926;48.120;11.562;2023-06-10T13:22:51;28.10;50.30
23499;DHT22;11926;48.120;11.562;2023-06-10T13:25:38;27.80;51.30
23499;DHT22;11926;48.120;11.562;2023-06-10T13:28:28;27.60;51.50
23499;DHT22;11926;48.120;11.562;2023-06-10T13:31:17;27.50;52.20
23499;DHT22;11926;48.120;11.562;2023-06-10T13:34:06;27.30;52.50
23499;DHT22;11926;48.120;11.562;2023-06-10T13:36:53;27.20;53.40
23499;DHT22;11926;48.120;11.562;2023-06-10T13:39:40;27.20;53.20
23499;DHT22;11926;48.120;11.562;2023-06-10T13:42:28;27.20;53.60
23499;DHT22;11926;48.120;11.562;2023-06-10T13:45:17;27.30;53.30
23499;DHT22;11926;48.120;11.562;2023-06-10T13:48:05;27.40;52.60
23499;DHT22;11926;48.120;11.562;2023-06-10T13:50:52;27.50;51.70
23499;DHT22;11926;48.120;11.562;2023-06-10T13:53:39;27.50;52.00
23499;DHT22;11926;48.120;11.562;2023-06-10T13:56:26;27.50;52.10
23499;DHT22;11926;48.120;11.562;2023-06-10T13:59:13;27.70;51.80
23499;DHT22;11926;48.120;11.562;2023-06-10T14:02:01;27.70;50.20
23499;DHT22;11926;48.120;11.562;2023-06-10T14:04:50;27.70;49.90
23499;DHT22;11926;48.120;11.562;2023-06-10T14:07:38;27.60;49.50
23499;DHT22;11926;48.120;11.562;2023-06-10T14:10:26;27.60;49.80
23499;DHT22;11926;48.120;11.562;2023-06-10T14:13:13;27.50;50.70
23499;DHT22;11926;48.120;11.562;2023-06-10T14:16:00;27.50;50.90
23499;DHT22;11926;48.120;11.562;2023-06-10T14:18:49;27.60;50.20
23499;DHT22;11926;48.120;11.562;2023-06-10T14:21:36;27.70;50.50
23499;DHT22;11926;48.120;11.562;2023-06-10T14:24:23;27.80;50.00
23499;DHT22;11926;48.120;11.562;2023-06-10T14:27:10;27.70;50.40
23499;DHT22;11926;48.120;11.562;2023-06-10T14:29:57;27.70;50.90
23499;DHT22;11926;48.120;11.562;2023-06-10T14:32:44;27.90;51.40
23499;DHT22;11926;48.120;11.562;2023-06-10T14:35:33;28.00;51.10
23499;DHT22;11926;48.120;11.562;2023-06-10T14:38:20;28.10;51.70
23499;DHT22;11926;48.120;11.562;2023-06-10T14:41:07;28.20;49.60
23499;DHT22;11926;48.120;11.562;2023-06-10T14:43:54;28.10;48.90
23499;DHT22;11926;48.120;11.562;2023-06-10T14:46:41;28.00;48.50
23499;DHT22;11926;48.120;11.562;2023-06-10T14:49:28;27.80;49.40
23499;DHT22;11926;48.120;11.562;2023-06-10T14:52:16;27.70;49.40
23499;DHT22;11926;48.120;11.562;2023-06-10T14:55:03;27.40;49.50
23499;DHT22;11926;48.120;11.562;2023-06-10T14:57:51;27.40;49.80
23499;DHT22;11926;48.120;11.562;2023-06-10T15:00:38;27.30;49.60
23499;DHT22;11926;48.120;11.562;2023-06-10T15:03:25;27.40;50.10
23499;DHT22;11926;48.120;11.562;2023-06-10T15:06:12;27.40;50.00
23499;DHT22;11926;48.120;11.562;2023-06-10T15:09:04;27.40;49.80
23499;DHT22;11926;48.120;11.562;2023-06-10T15:11:51;27.40;50.20
23499;DHT22;11926;48.120;11.562;2023-06-10T15:14:38;27.50;50.00
23499;DHT22;11926;48.120;11.562;2023-06-10T15:17:25;27.60;49.90
23499;DHT22;11926;48.120;11.562;2023-06-10T15:20:13;27.70;49.30
23499;DHT22;11926;48.120;11.562;2023-06-10T15:22:59;27.70;49.90
23499;DHT22;11926;48.120;11.562;2023-06-10T15:25:49;27.70;50.50
23499;DHT22;11926;48.120;11.562;2023-06-10T15:28:35;27.60;51.30
23499;DHT22;11926;48.120;11.562;2023-06-10T15:31:23;27.60;51.60
23499;DHT22;11926;48.120;11.562;2023-06-10T15:34:09;27.50;51.80
23499;DHT22;11926;48.120;11.562;2023-06-10T15:36:57;27.30;52.30
23499;DHT22;11926;48.120;11.562;2023-06-10T15:39:44;27.20;52.70
23499;DHT22;11926;48.120;11.562;2023-06-10T15:42:32;27.20;52.80
23499;DHT22;11926;48.120;11.562;2023-06-10T15:45:19;27.40;52.60
23499;DHT22;11926;48.120;11.562;2023-06-10T15:48:06;27.50;52.90
23499;DHT22;11926;48.120;11.562;2023-06-10T15:50:53;27.60;51.30
23499;DHT22;11926;48.120;11.562;2023-06-10T15:53:40;27.60;51.10
23499;DHT22;11926;48.120;11.562;2023-06-10T15:56:27;27.50;50.20
23499;DHT22;11926;48.120;11.562;2023-06-10T15:59:16;27.40;50.10
23499;DHT22;11926;48.120;11.562;2023-06-10T16:02:03;27.30;50.80
23499;DHT22;11926;48.120;11.562;2023-06-10T16:04:50;27.00;50.90
23499;DHT22;11926;48.120;11.562;2023-06-10T16:07:37;26.80;52.00
23499;DHT22;11926;48.120;11.562;2023-06-10T16:10:26;26.70;52.90
23499;DHT22;11926;48.120;11.562;2023-06-10T16:13:13;26.60;53.20
23499;DHT22;11926;48.120;11.562;2023-06-10T16:16:01;26.50;53.90
23499;DHT22;11926;48.120;11.562;2023-06-10T16:18:49;26.50;54.50
23499;DHT22;11926;48.120;11.562;2023-06-10T16:21:36;26.40;55.00
23499;DHT22;11926;48.120;11.562;2023-06-10T16:24:25;26.30;56.20
23499;DHT22;11926;48.120;11.562;2023-06-10T16:27:15;26.30;56.00
23499;DHT22;11926;48.120;11.562;2023-06-10T16:30:02;26.20;56.20
23499;DHT22;11926;48.120;11.562;2023-06-10T16:32:51;26.20;56.60
23499;DHT22;11926;48.120;11.562;2023-06-10T16:35:38;26.20;56.30
23499;DHT22;11926;48.120;11.562;2023-06-10T16:38:25;26.20;56.20
23499;DHT22;11926;48.120;11.562;2023-06-10T16:41:12;26.30;56.70
23499;DHT22;11926;48.120;11.562;2023-06-10T16:43:59;26.30;55.90
23499;DHT22;11926;48.120;11.562;2023-06-10T16:46:49;26.30;55.30
23499;DHT22;11926;48.120;11.562;2023-06-10T16:49:38;26.00;55.40
23499;DHT22;11926;48.120;11.562;2023-06-10T16:52:25;25.80;55.20
23499;DHT22;11926;48.120;11.562;2023-06-10T16:55:12;25.70;54.70
23499;DHT22;11926;48.120;11.562;2023-06-10T16:57:59;25.50;54.70
23499;DHT22;11926;48.120;11.562;2023-06-10T17:00:46;25.40;55.20
23499;DHT22;11926;48.120;11.562;2023-06-10T17:03:35;25.30;56.30
23499;DHT22;11926;48.120;11.562;2023-06-10T17:06:23;25.20;56.80
23499;DHT22;11926;48.120;11.562;2023-06-10T17:09:10;25.10;57.30
23499;DHT22;11926;48.120;11.562;2023-06-10T17:11:57;25.00;58.10
23499;DHT22;11926;48.120;11.562;2023-06-10T17:14:44;24.90;58.20
23499;DHT22;11926;48.120;11.562;2023-06-10T17:17:30;24.90;58.70
23499;DHT22;11926;48.120;11.562;2023-06-10T17:20:19;24.90;58.60
23499;DHT22;11926;48.120;11.562;2023-06-10T17:23:07;24.90;58.80
23499;DHT22;11926;48.120;11.562;2023-06-10T17:25:54;25.00;58.90
23499;DHT22;11926;48.120;11.562;2023-06-10T17:28:41;25.00;58.80
23499;DHT22;11926;48.120;11.562;2023-06-10T17:31:29;24.90;59.00